TFFR Airport Information

Runway Information
Runway 12 Length 11499 ft width 148 ft
Elevation 5 ft Threshold 1312 ft Heading 101
Runway 30 Length 11499 ft Width 148 ft
Elevation 32 ft Threshold 820 ft Heading 281
Airport Frequencies
Type APP Name RAIZET APP Frequency 121.3 MHZ
Type ATIS Name ATIS Frequency 127.6 MHZ
Type GND Name GND Frequency 121.85 MHZ
Type TWR Name RAIZET TWR Frequency 118.4 MHZ
Airport Navaids
Type VOR-DME Name Pointe A Pitre Frequency 112900 KHZ
Type NDB Name Pointe A Pitre Frequency 385 KHZ
Airport Weather Information & NOTAM
ADDS - METARS form results

(0633 UTC 30 June 2022)
Data provider http://aviationweather.gov/metar/data/
 
METAR text: TFFR 300630Z AUTO 12005KT 9999 FEW023 SCT045 26/24 Q1016
Conditions at: TFFR (LE RAIZET , GP) observed 0630 UTC 30 June 2022
Temperature: 26.0°C (79°F)
Dewpoint: 24.0°C (75°F) [RH = 89%]
Pressure (altimeter): 30.00 inches Hg (1016.0 mb)
Winds: from the ESE (120 degrees) at 6 MPH (5 knots; 2.6 m/s)
Visibility: 6 or more miles (10+ km)
Ceiling: at least 12,000 feet AGL
Clouds: few clouds at 2300 feet AGL
scattered clouds at 4500 feet AGL
Weather: no significant weather observed at this time

METAR text: TFFR 300600Z AUTO 12006KT 9999 FEW032/// ///TCU 26/24 Q1016
Conditions at: TFFR (LE RAIZET , GP) observed 0600 UTC 30 June 2022
Temperature: 26.0°C (79°F)
Dewpoint: 24.0°C (75°F) [RH = 89%]
Pressure (altimeter): 30.00 inches Hg (1016.0 mb)
Winds: from the ESE (120 degrees) at 7 MPH (6 knots; 3.1 m/s)
Visibility: 6 or more miles (10+ km)
Ceiling: at least 12,000 feet AGL
Clouds: few clouds at 3200 feet AGL
Weather: no significant weather observed at this time